createdAt,value
2018-04-06T00:05:34.327Z,10.5
2018-04-06T00:11:25.106Z,27.5
2018-04-06T00:17:15.924Z,16.59
2018-04-06T00:23:06.683Z,15.02
2018-04-06T00:28:57.518Z,14.71
2018-04-06T00:34:48.270Z,17.77
2018-04-06T00:40:39.018Z,14.31
2018-04-06T00:46:29.797Z,11.52
2018-04-06T00:52:20.577Z,17.34
2018-04-06T00:58:11.388Z,13.91
2018-04-06T01:04:02.150Z,16.4
2018-04-06T01:09:52.897Z,13.47
2018-04-06T01:15:43.689Z,14.87
2018-04-06T01:21:34.478Z,15.53
2018-04-06T01:27:25.249Z,22.77
2018-04-06T01:33:16.041Z,18.37
2018-04-06T01:39:06.832Z,17.97
2018-04-06T01:44:57.592Z,16.69
2018-04-06T01:50:48.405Z,19.92
2018-04-06T01:56:39.184Z,23.16
2018-04-06T02:02:29.992Z,19.91
2018-04-06T02:08:20.744Z,11.63
2018-04-06T02:14:11.525Z,19.02
2018-04-06T02:20:02.387Z,19.37
2018-04-06T02:25:53.096Z,20.75
2018-04-06T02:31:43.919Z,23.92
2018-04-06T02:37:34.676Z,22.89
2018-04-06T02:43:25.452Z,22.13
2018-04-06T02:49:16.243Z,19.8
2018-04-06T02:55:07.038Z,21.94
2018-04-06T03:00:57.824Z,18.64
2018-04-06T03:06:48.610Z,21.92
2018-04-06T03:12:39.385Z,16.71
2018-04-06T03:18:30.200Z,21.46
2018-04-06T03:24:20.969Z,19.97
2018-04-06T03:30:11.754Z,23.38
2018-04-06T03:36:02.580Z,22.88
2018-04-06T03:41:53.341Z,20.84
2018-04-06T03:47:44.143Z,28.36
2018-04-06T03:53:34.877Z,26.04
2018-04-06T03:59:25.657Z,19.68
2018-04-06T04:05:16.429Z,25.16
2018-04-06T04:11:07.225Z,23.04
2018-04-06T04:16:58.003Z,16.69
2018-04-06T04:22:48.799Z,18.8
2018-04-06T04:28:39.562Z,21.09
2018-04-06T04:34:30.396Z,18.58
2018-04-06T04:40:21.196Z,19.28
2018-04-06T04:46:11.943Z,19.87
2018-04-06T04:52:02.714Z,18.91
2018-04-06T04:57:53.490Z,22.7
2018-04-06T05:03:44.245Z,23.57
2018-04-06T05:09:35.049Z,19.19
2018-04-06T05:15:25.807Z,15.9
2018-04-06T05:21:16.542Z,20.31
2018-04-06T05:27:07.336Z,19.47
2018-04-06T05:32:58.158Z,23.51
2018-04-06T05:38:48.967Z,21.59
2018-04-06T05:44:39.638Z,18.31
2018-04-06T05:50:30.421Z,52.81
2018-04-06T05:56:21.257Z,82.94
2018-04-06T06:02:11.958Z,112.14
2018-04-06T06:08:02.760Z,37.32
2018-04-06T06:13:53.511Z,48.44
2018-04-06T06:19:44.321Z,108.94
2018-04-06T06:25:35.134Z,98.67
2018-04-06T06:31:25.883Z,66.94
2018-04-06T06:37:16.660Z,32.58
2018-04-06T06:43:07.480Z,39.46
2018-04-06T06:48:58.235Z,41.55
2018-04-06T06:54:48.996Z,39.01
2018-04-06T07:00:39.765Z,27.37
2018-04-06T07:06:30.585Z,27.39
2018-04-06T07:12:21.359Z,25.06
2018-04-06T07:18:12.181Z,28.12
2018-04-06T07:24:02.933Z,40.44
2018-04-06T07:29:53.713Z,30.95
2018-04-06T07:35:44.545Z,34.75
2018-04-06T07:41:35.300Z,39.1
2018-04-06T07:47:26.167Z,52.42
2018-04-06T07:53:16.918Z,62.51
2018-04-06T07:59:07.767Z,53.94
2018-04-06T08:04:58.527Z,48
2018-04-06T08:10:49.328Z,50.39
2018-04-06T08:16:40.151Z,53.09
2018-04-06T08:22:30.937Z,49.76
2018-04-06T08:28:21.810Z,44.85
2018-04-06T08:34:12.567Z,39.31
2018-04-06T08:40:03.390Z,34.02
2018-04-06T08:45:54.213Z,28.53
2018-04-06T08:51:45.059Z,22.34
2018-04-06T08:57:35.880Z,24.89
2018-04-06T09:03:26.732Z,21.07
2018-04-06T09:09:17.540Z,22.24
2018-04-06T09:15:08.420Z,33.27
2018-04-06T09:20:59.264Z,27.17
2018-04-06T09:26:50.114Z,21.15
2018-04-06T09:32:41.021Z,24.29
2018-04-06T09:38:31.804Z,27.31
2018-04-06T09:44:22.709Z,27.82
2018-04-06T09:50:13.554Z,22.25
2018-04-06T09:56:04.452Z,30.53
2018-04-06T10:01:55.298Z,25.7
2018-04-06T10:07:46.182Z,29.27
2018-04-06T10:13:37.098Z,30.5
2018-04-06T10:19:27.949Z,21.4
2018-04-06T10:25:18.928Z,18.25
2018-04-06T10:31:09.803Z,19.52
2018-04-06T10:37:00.638Z,19.04
2018-04-06T10:42:51.555Z,18.74
2018-04-06T10:48:42.466Z,21.85
2018-04-06T10:54:33.382Z,19.69
2018-04-06T11:00:24.273Z,15.75
2018-04-06T11:06:15.106Z,14.97
2018-04-06T11:12:06.006Z,16.3
2018-04-06T11:17:56.850Z,12.11
2018-04-06T11:23:47.650Z,16.32
2018-04-06T11:29:38.488Z,11.62
2018-04-06T11:35:29.332Z,17.8
2018-04-06T11:41:20.151Z,14.64
2018-04-06T11:47:11.019Z,17.07
2018-04-06T11:53:01.879Z,18.22
2018-04-06T11:58:52.648Z,9.47
2018-04-06T12:04:43.441Z,13.08
2018-04-06T12:10:34.384Z,9.55
2018-04-06T12:16:25.178Z,15.54
2018-04-06T12:22:16.008Z,13.75
2018-04-06T12:28:06.844Z,13.55
2018-04-06T12:33:57.684Z,17.18
2018-04-06T12:39:48.493Z,13.89
2018-04-06T12:45:39.362Z,16.57
2018-04-06T12:51:30.196Z,9.16
2018-04-06T12:57:21.015Z,11.65
2018-04-06T13:03:11.868Z,11.38
2018-04-06T13:09:02.692Z,8.36
2018-04-06T13:14:53.538Z,9.09
2018-04-06T13:20:44.438Z,6.32
2018-04-06T13:26:35.237Z,4.32
2018-04-06T13:32:26.051Z,5.24
2018-04-06T13:38:16.969Z,5.76
2018-04-06T13:44:07.790Z,4.52
2018-04-06T13:49:58.682Z,6.05
2018-04-06T13:55:49.607Z,3.1
2018-04-06T14:01:40.476Z,3.43
2018-04-06T14:07:31.382Z,3.24
2018-04-06T14:13:22.310Z,11.85
2018-04-06T14:19:13.253Z,3.2
2018-04-06T14:25:04.096Z,3.99
2018-04-06T14:30:54.980Z,4.39
2018-04-06T14:36:45.869Z,4.24
2018-04-06T14:42:36.816Z,2.81
2018-04-06T14:48:27.652Z,7.09
2018-04-06T14:54:18.598Z,4.13
2018-04-06T15:00:09.462Z,3.44
2018-04-06T15:06:00.332Z,5.08
2018-04-06T15:11:51.268Z,3.85
2018-04-06T15:17:42.113Z,4.34
2018-04-06T15:23:33.004Z,4.81
2018-04-06T15:29:23.885Z,8.36
2018-04-06T15:35:14.777Z,6.86
2018-04-06T15:41:05.659Z,6.14
2018-04-06T15:46:56.581Z,8.67
2018-04-06T15:52:47.438Z,4.45
2018-04-06T15:58:38.316Z,4.32
2018-04-06T16:04:29.172Z,4.76
2018-04-06T16:10:20.048Z,4.05
2018-04-06T16:16:10.972Z,8.71
2018-04-06T16:22:01.833Z,4.96
2018-04-06T16:27:52.685Z,5.86
2018-04-06T16:33:43.569Z,4.78
2018-04-06T16:39:34.436Z,5.81
2018-04-06T16:45:25.287Z,11.26
2018-04-06T16:51:16.177Z,5.01
2018-04-06T16:57:07.085Z,8.25
2018-04-06T17:02:57.904Z,10.68
2018-04-06T17:08:48.757Z,7.9
2018-04-06T17:14:39.646Z,6.37
2018-04-06T17:20:30.488Z,6.04
2018-04-06T17:26:21.358Z,7.9
2018-04-06T17:32:12.237Z,10.31
2018-04-06T17:38:03.078Z,9.46
2018-04-06T17:43:53.954Z,6.91
2018-04-06T17:49:44.857Z,6.98
2018-04-06T17:55:35.674Z,4.89
2018-04-06T18:01:26.530Z,10.42
2018-04-06T18:07:17.394Z,13.86
2018-04-06T18:13:08.191Z,17.54
2018-04-06T18:18:59.060Z,9.13
2018-04-06T18:24:49.903Z,10.15
2018-04-06T18:30:40.736Z,10.88
2018-04-06T18:36:31.574Z,6.72
2018-04-06T18:42:22.464Z,6.91
2018-04-06T18:48:13.244Z,9.83
2018-04-06T18:54:04.090Z,11.8
2018-04-06T18:59:54.957Z,7.02
2018-04-06T19:05:45.803Z,12.36
2018-04-06T19:11:36.606Z,13.75
2018-04-06T19:17:27.431Z,13.76
2018-04-06T19:23:18.256Z,15.53
2018-04-06T19:29:09.284Z,12.99
2018-04-06T19:34:59.955Z,14.81
2018-04-06T19:40:50.777Z,15.9
2018-04-06T19:46:41.601Z,14.6
2018-04-06T19:52:32.454Z,15.32
2018-04-06T19:58:23.255Z,18.21
2018-04-06T20:04:14.110Z,14.87
2018-04-06T20:10:04.932Z,15.13
2018-04-06T20:15:55.742Z,15.97
2018-04-06T20:21:46.604Z,19.69
2018-04-06T20:27:37.402Z,16.78
2018-04-06T20:33:28.257Z,11.63
2018-04-06T20:39:19.094Z,15.24
2018-04-06T20:45:09.925Z,8.21
2018-04-06T20:51:00.745Z,5.7
2018-04-06T20:56:51.571Z,7.46
2018-04-06T21:02:42.413Z,20.7
2018-04-06T21:08:33.236Z,29.01
2018-04-06T21:14:24.079Z,22.81
2018-04-06T21:20:14.897Z,24.76
2018-04-06T21:26:05.745Z,19.69
2018-04-06T21:31:56.575Z,17.41
2018-04-06T21:37:47.384Z,20.37
2018-04-06T21:43:38.185Z,14.14
2018-04-06T21:49:29.024Z,11.81
2018-04-06T21:55:19.815Z,13.28
2018-04-06T22:01:10.662Z,10.6
2018-04-06T22:07:01.458Z,11.24
2018-04-06T22:12:52.280Z,14.04
2018-04-06T22:18:43.091Z,10
2018-04-06T22:24:33.940Z,9.77
2018-04-06T22:30:24.738Z,9.64
2018-04-06T22:36:15.552Z,12.64
2018-04-06T22:42:06.360Z,10.12
2018-04-06T22:47:57.178Z,9.35
2018-04-06T22:53:47.969Z,9.49
2018-04-06T22:59:38.837Z,12.33
2018-04-06T23:05:29.642Z,8.43
2018-04-06T23:11:20.458Z,11.45
2018-04-06T23:17:11.236Z,8.54
2018-04-06T23:23:02.015Z,8.72
2018-04-06T23:28:52.840Z,7.42
2018-04-06T23:34:43.688Z,5.55
2018-04-06T23:40:34.447Z,7.85
2018-04-06T23:46:25.259Z,5.01
2018-04-06T23:52:16.070Z,6.13
2018-04-06T23:58:06.894Z,6.01
